sensor_id;sensor_type;location;lat;lon;timestamp;pressure;altitude;pressure_sealevel;temperature;humidity
46614;BME280;32338;50.430;6.806;2023-04-29T00:02:12;66550.72;;;10.39;100.00
46614;BME280;32338;50.430;6.806;2023-04-29T00:04:38;66543.94;;;10.33;100.00
46614;BME280;32338;50.430;6.806;2023-04-29T00:07:05;66525.53;;;10.18;100.00
46614;BME280;32338;50.430;6.806;2023-04-29T00:09:33;66522.69;;;10.09;100.00
46614;BME280;32338;50.430;6.806;2023-04-29T00:12:00;66518.03;;;10.09;100.00
46614;BME280;32338;50.430;6.806;2023-04-29T00:14:27;66506.19;;;9.98;100.00
46614;BME280;32338;50.430;6.806;2023-04-29T00:16:54;66508.81;;;9.98;100.00
46614;BME280;32338;50.430;6.806;2023-04-29T00:19:21;66508.25;;;9.98;100.00
46614;BME280;32338;50.430;6.806;2023-04-29T00:21:48;66502.25;;;9.95;100.00
46614;BME280;32338;50.430;6.806;2023-04-29T00:24:14;66505.44;;;9.95;100.00
46614;BME280;32338;50.430;6.806;2023-04-29T00:26:41;66503.19;;;9.93;100.00
46614;BME280;32338;50.430;6.806;2023-04-29T00:29:08;66508.47;;;10.00;100.00
46614;BME280;32338;50.430;6.806;2023-04-29T00:31:34;66512.75;;;10.02;100.00
46614;BME280;32338;50.430;6.806;2023-04-29T00:34:02;66518.19;;;10.04;100.00
46614;BME280;32338;50.430;6.806;2023-04-29T00:36:29;66523.66;;;10.14;100.00
46614;BME280;32338;50.430;6.806;2023-04-29T00:38:56;66524.56;;;10.13;100.00
46614;BME280;32338;50.430;6.806;2023-04-29T00:41:24;66518.59;;;10.10;100.00
46614;BME280;32338;50.430;6.806;2023-04-29T00:43:51;66506.19;;;9.98;100.00
46614;BME280;32338;50.430;6.806;2023-04-29T00:46:17;66488.94;;;9.85;100.00
46614;BME280;32338;50.430;6.806;2023-04-29T00:48:44;66475.41;;;9.72;100.00
46614;BME280;32338;50.430;6.806;2023-04-29T00:51:12;66477.84;;;9.70;100.00
46614;BME280;32338;50.430;6.806;2023-04-29T00:53:39;66476.16;;;9.68;100.00
46614;BME280;32338;50.430;6.806;2023-04-29T00:56:06;66468.09;;;9.66;100.00
46614;BME280;32338;50.430;6.806;2023-04-29T00:58:33;66483.84;;;9.73;100.00
46614;BME280;32338;50.430;6.806;2023-04-29T01:01:00;66483.28;;;9.72;100.00
46614;BME280;32338;50.430;6.806;2023-04-29T01:03:28;66479.34;;;9.69;100.00
46614;BME280;32338;50.430;6.806;2023-04-29T01:06:04;66479.34;;;9.69;100.00
46614;BME280;32338;50.430;6.806;2023-04-29T01:08:43;66467.91;;;9.63;100.00
46614;BME280;32338;50.430;6.806;2023-04-29T01:11:15;66467.72;;;9.61;100.00
46614;BME280;32338;50.430;6.806;2023-04-29T01:13:49;66465.66;;;9.61;100.00
46614;BME280;32338;50.430;6.806;2023-04-29T01:16:22;66468.66;;;9.59;100.00
46614;BME280;32338;50.430;6.806;2023-04-29T01:18:53;66482.53;;;9.69;100.00
46614;BME280;32338;50.430;6.806;2023-04-29T01:21:20;66479.16;;;9.73;100.00
46614;BME280;32338;50.430;6.806;2023-04-29T01:23:49;66492.84;;;9.81;100.00
46614;BME280;32338;50.430;6.806;2023-04-29T01:26:20;66484.25;;;9.78;100.00
46614;BME280;32338;50.430;6.806;2023-04-29T01:28:52;66489.31;;;9.83;100.00
46614;BME280;32338;50.430;6.806;2023-04-29T01:31:23;66489.69;;;9.81;100.00
46614;BME280;32338;50.430;6.806;2023-04-29T01:33:59;66481.78;;;9.73;100.00
46614;BME280;32338;50.430;6.806;2023-04-29T01:36:36;66473.34;;;9.66;100.00
46614;BME280;32338;50.430;6.806;2023-04-29T01:39:13;66464.53;;;9.60;100.00
46614;BME280;32338;50.430;6.806;2023-04-29T01:41:42;66462.28;;;9.58;100.00
46614;BME280;32338;50.430;6.806;2023-04-29T01:44:14;66478.81;;;9.76;100.00
46614;BME280;32338;50.430;6.806;2023-04-29T01:46:42;66476.34;;;9.71;100.00
46614;BME280;32338;50.430;6.806;2023-04-29T01:49:09;66478.97;;;9.71;100.00
46614;BME280;32338;50.430;6.806;2023-04-29T01:51:35;66483.84;;;9.73;100.00
46614;BME280;32338;50.430;6.806;2023-04-29T01:54:02;66482.38;;;9.74;100.00
46614;BME280;32338;50.430;6.806;2023-04-29T01:56:30;66484.78;;;9.79;100.00
46614;BME280;32338;50.430;6.806;2023-04-29T01:58:57;66476.53;;;9.66;100.00
46614;BME280;32338;50.430;6.806;2023-04-29T02:01:24;66456.28;;;9.55;100.00
46614;BME280;32338;50.430;6.806;2023-04-29T02:03:50;66457.38;;;9.49;100.00
46614;BME280;32338;50.430;6.806;2023-04-29T02:06:17;66445.38;;;9.35;100.00
46614;BME280;32338;50.430;6.806;2023-04-29T02:08:43;66428.13;;;9.22;100.00
46614;BME280;32338;50.430;6.806;2023-04-29T02:11:10;66409.56;;;9.12;100.00
46614;BME280;32338;50.430;6.806;2023-04-29T02:13:38;66402.63;;;9.03;100.00
46614;BME280;32338;50.430;6.806;2023-04-29T02:16:08;66401.28;;;9.00;100.00
46614;BME280;32338;50.430;6.806;2023-04-29T02:18:35;66399.63;;;8.98;100.00
46614;BME280;32338;50.430;6.806;2023-04-29T02:21:02;66394.19;;;8.96;100.00
46614;BME280;32338;50.430;6.806;2023-04-29T02:23:29;66395.13;;;8.94;100.00
46614;BME280;32338;50.430;6.806;2023-04-29T02:25:56;66392.31;;;8.91;100.00
46614;BME280;32338;50.430;6.806;2023-04-29T02:28:23;66395.28;;;8.89;100.00
46614;BME280;32338;50.430;6.806;2023-04-29T02:30:51;66382.00;;;8.87;100.00
46614;BME280;32338;50.430;6.806;2023-04-29T02:33:17;66381.59;;;8.82;100.00
46614;BME280;32338;50.430;6.806;2023-04-29T02:35:44;66380.84;;;8.79;100.00
46614;BME280;32338;50.430;6.806;2023-04-29T02:38:11;66382.16;;;8.82;100.00
46614;BME280;32338;50.430;6.806;2023-04-29T02:40:40;66375.06;;;8.78;100.00
46614;BME280;32338;50.430;6.806;2023-04-29T02:43:07;66378.81;;;8.79;100.00
46614;BME280;32338;50.430;6.806;2023-04-29T02:45:34;66368.84;;;8.72;100.00
46614;BME280;32338;50.430;6.806;2023-04-29T02:48:02;66374.66;;;8.73;100.00
46614;BME280;32338;50.430;6.806;2023-04-29T02:50:28;66365.50;;;8.69;100.00
46614;BME280;32338;50.430;6.806;2023-04-29T02:52:55;66371.13;;;8.74;100.00
46614;BME280;32338;50.430;6.806;2023-04-29T02:55:21;66360.22;;;8.62;100.00
46614;BME280;32338;50.430;6.806;2023-04-29T02:57:48;66345.25;;;8.51;100.00
46614;BME280;32338;50.430;6.806;2023-04-29T03:00:15;66342.22;;;8.46;100.00
46614;BME280;32338;50.430;6.806;2023-04-29T03:02:41;66339.41;;;8.43;100.00
46614;BME280;32338;50.430;6.806;2023-04-29T03:05:09;66330.59;;;8.37;100.00
46614;BME280;32338;50.430;6.806;2023-04-29T03:07:36;66328.50;;;8.31;100.00
46614;BME280;32338;50.430;6.806;2023-04-29T03:10:03;66319.34;;;8.27;100.00
46614;BME280;32338;50.430;6.806;2023-04-29T03:12:30;66319.72;;;8.25;100.00
46614;BME280;32338;50.430;6.806;2023-04-29T03:14:56;66320.84;;;8.26;100.00
46614;BME280;32338;50.430;6.806;2023-04-29T03:17:23;66318.22;;;8.26;100.00
46614;BME280;32338;50.430;6.806;2023-04-29T03:19:50;66317.88;;;8.28;100.00
46614;BME280;32338;50.430;6.806;2023-04-29T03:22:19;66322.53;;;8.27;100.00
46614;BME280;32338;50.430;6.806;2023-04-29T03:24:46;66319.72;;;8.25;100.00
46614;BME280;32338;50.430;6.806;2023-04-29T03:27:13;66314.47;;;8.18;100.00
46614;BME280;32338;50.430;6.806;2023-04-29T03:29:39;66312.56;;;8.14;100.00
46614;BME280;32338;50.430;6.806;2023-04-29T03:32:06;66306.97;;;8.16;100.00
46614;BME280;32338;50.430;6.806;2023-04-29T03:34:32;66311.47;;;8.20;100.00
46614;BME280;32338;50.430;6.806;2023-04-29T03:36:59;66305.66;;;8.12;100.00
46614;BME280;32338;50.430;6.806;2023-04-29T03:39:27;66299.09;;;8.08;100.00
46614;BME280;32338;50.430;6.806;2023-04-29T03:41:56;66296.28;;;8.06;100.00
46614;BME280;32338;50.430;6.806;2023-04-29T03:44:23;66299.28;;;8.04;100.00
46614;BME280;32338;50.430;6.806;2023-04-29T03:46:50;66298.16;;;8.03;100.00
46614;BME280;32338;50.430;6.806;2023-04-29T03:49:17;66292.34;;;8.02;100.00
46614;BME280;32338;50.430;6.806;2023-04-29T03:51:43;66289.75;;;8.02;100.00
46614;BME280;32338;50.430;6.806;2023-04-29T03:54:11;66287.31;;;7.98;100.00
46614;BME280;32338;50.430;6.806;2023-04-29T03:56:39;66290.47;;;7.98;100.00
46614;BME280;32338;50.430;6.806;2023-04-29T03:59:06;66282.44;;;7.95;100.00
46614;BME280;32338;50.430;6.806;2023-04-29T04:01:32;66290.47;;;7.98;100.00
46614;BME280;32338;50.430;6.806;2023-04-29T04:03:59;66286.75;;;7.97;100.00
46614;BME280;32338;50.430;6.806;2023-04-29T04:06:26;66289.34;;;7.97;100.00
46614;BME280;32338;50.430;6.806;2023-04-29T04:08:52;66299.09;;;8.08;100.00
46614;BME280;32338;50.430;6.806;2023-04-29T04:11:19;66304.91;;;8.09;100.00
46614;BME280;32338;50.430;6.806;2023-04-29T04:13:47;66294.97;;;8.02;100.00
46614;BME280;32338;50.430;6.806;2023-04-29T04:16:14;66299.69;;;8.09;100.00
46614;BME280;32338;50.430;6.806;2023-04-29T04:18:40;66303.97;;;8.10;100.00
46614;BME280;32338;50.430;6.806;2023-04-29T04:21:08;66303.63;;;8.13;100.00
46614;BME280;32338;50.430;6.806;2023-04-29T04:23:35;66311.84;;;8.18;100.00
46614;BME280;32338;50.430;6.806;2023-04-29T04:26:04;66311.28;;;8.17;100.00
46614;BME280;32338;50.430;6.806;2023-04-29T04:28:31;66300.81;;;8.10;100.00
46614;BME280;32338;50.430;6.806;2023-04-29T04:30:59;66303.41;;;8.10;100.00
46614;BME280;32338;50.430;6.806;2023-04-29T04:33:26;66319.72;;;8.25;100.00
46614;BME280;32338;50.430;6.806;2023-04-29T04:35:53;66312.59;;;8.21;100.00
46614;BME280;32338;50.430;6.806;2023-04-29T04:38:19;66303.81;;;8.15;100.00
46614;BME280;32338;50.430;6.806;2023-04-29T04:40:47;66303.41;;;8.10;100.00
46614;BME280;32338;50.430;6.806;2023-04-29T04:43:13;66298.19;;;8.10;100.00
46614;BME280;32338;50.430;6.806;2023-04-29T04:45:40;66293.50;;;8.03;100.00
46614;BME280;32338;50.430;6.806;2023-04-29T04:48:08;66297.44;;;8.07;100.00
46614;BME280;32338;50.430;6.806;2023-04-29T04:50:35;66301.00;;;8.13;100.00
46614;BME280;32338;50.430;6.806;2023-04-29T04:53:01;66307.91;;;8.14;100.00
46614;BME280;32338;50.430;6.806;2023-04-29T04:55:28;66311.28;;;8.17;100.00
46614;BME280;32338;50.430;6.806;2023-04-29T04:57:55;66316.34;;;8.22;100.00
46614;BME280;32338;50.430;6.806;2023-04-29T05:00:22;66311.66;;;8.15;100.00
46614;BME280;32338;50.430;6.806;2023-04-29T05:02:49;66312.75;;;8.16;100.00
46614;BME280;32338;50.430;6.806;2023-04-29T05:05:17;66308.25;;;8.12;100.00
46614;BME280;32338;50.430;6.806;2023-04-29T05:07:44;66298.19;;;8.10;100.00
46614;BME280;32338;50.430;6.806;2023-04-29T05:10:10;66301.16;;;8.08;100.00
46614;BME280;32338;50.430;6.806;2023-04-29T05:12:37;66297.06;;;8.09;100.00
46614;BME280;32338;50.430;6.806;2023-04-29T05:15:04;66296.13;;;8.10;100.00
46614;BME280;32338;50.430;6.806;2023-04-29T05:17:32;66312.97;;;8.19;100.00
46614;BME280;32338;50.430;6.806;2023-04-29T05:20:00;66315.22;;;8.21;100.00
46614;BME280;32338;50.430;6.806;2023-04-29T05:22:28;66299.09;;;8.08;100.00
46614;BME280;32338;50.430;6.806;2023-04-29T05:24:55;66297.22;;;8.04;100.00
46614;BME280;32338;50.430;6.806;2023-04-29T05:27:27;66282.09;;;7.98;100.00
46614;BME280;32338;50.430;6.806;2023-04-29T05:29:53;66289.72;;;7.95;100.00
46614;BME280;32338;50.430;6.806;2023-04-29T05:32:21;66283.38;;;7.94;100.00
46614;BME280;32338;50.430;6.806;2023-04-29T05:34:47;66285.22;;;7.91;100.00
46614;BME280;32338;50.430;6.806;2023-04-29T05:37:14;66291.97;;;7.97;100.00
46614;BME280;32338;50.430;6.806;2023-04-29T05:39:42;66290.69;;;8.01;100.00
46614;BME280;32338;50.430;6.806;2023-04-29T05:42:08;66283.56;;;7.97;100.00
46614;BME280;32338;50.430;6.806;2023-04-29T05:44:35;66291.59;;;7.99;100.00
46614;BME280;32338;50.430;6.806;2023-04-29T05:47:01;66286.53;;;7.94;100.00
46614;BME280;32338;50.430;6.806;2023-04-29T05:49:28;66287.47;;;7.93;100.00
46614;BME280;32338;50.430;6.806;2023-04-29T05:51:55;66293.50;;;8.03;100.00
46614;BME280;32338;50.430;6.806;2023-04-29T05:54:21;66288.78;;;7.97;100.00
46614;BME280;32338;50.430;6.806;2023-04-29T05:56:49;66286.00;;;7.94;100.00
46614;BME280;32338;50.430;6.806;2023-04-29T05:59:16;66274.72;;;7.84;100.00
46614;BME280;32338;50.430;6.806;2023-04-29T06:01:42;66279.25;;;7.88;100.00
46614;BME280;32338;50.430;6.806;2023-04-29T06:04:09;66262.00;;;7.74;100.00
46614;BME280;32338;50.430;6.806;2023-04-29T06:06:35;66264.81;;;7.77;100.00
46614;BME280;32338;50.430;6.806;2023-04-29T06:09:02;66271.00;;;7.83;100.00
46614;BME280;32338;50.430;6.806;2023-04-29T06:11:30;66268.19;;;7.80;100.00
46614;BME280;32338;50.430;6.806;2023-04-29T06:13:58;66280.53;;;7.84;100.00
46614;BME280;32338;50.430;6.806;2023-04-29T06:16:24;66281.47;;;7.90;100.00
46614;BME280;32338;50.430;6.806;2023-04-29T06:18:51;66284.84;;;7.93;100.00
46614;BME280;32338;50.430;6.806;2023-04-29T06:21:18;66278.88;;;7.90;100.00
46614;BME280;32338;50.430;6.806;2023-04-29T06:23:44;66276.06;;;7.87;100.00
46614;BME280;32338;50.430;6.806;2023-04-29T06:26:11;66269.09;;;7.78;100.00
46614;BME280;32338;50.430;6.806;2023-04-29T06:28:38;66271.72;;;7.78;100.00
46614;BME280;32338;50.430;6.806;2023-04-29T06:31:06;66265.16;;;7.75;100.00
46614;BME280;32338;50.430;6.806;2023-04-29T06:33:32;66264.06;;;7.74;100.00
46614;BME280;32338;50.430;6.806;2023-04-29T06:35:59;66261.66;;;7.76;100.00
46614;BME280;32338;50.430;6.806;2023-04-29T06:38:25;66272.50;;;7.82;100.00
46614;BME280;32338;50.430;6.806;2023-04-29T06:40:52;66278.13;;;7.87;100.00
46614;BME280;32338;50.430;6.806;2023-04-29T06:43:19;66274.72;;;7.84;100.00
46614;BME280;32338;50.430;6.806;2023-04-29T06:45:45;66274.72;;;7.84;100.00
46614;BME280;32338;50.430;6.806;2023-04-29T06:48:13;66275.84;;;7.85;100.00
46614;BME280;32338;50.430;6.806;2023-04-29T06:50:48;66265.75;;;7.75;100.00
46614;BME280;32338;50.430;6.806;2023-04-29T06:53:14;66246.28;;;7.60;100.00
46614;BME280;32338;50.430;6.806;2023-04-29T06:55:41;66255.25;;;7.68;100.00
46614;BME280;32338;50.430;6.806;2023-04-29T06:58:07;66260.13;;;7.70;100.00
46614;BME280;32338;50.430;6.806;2023-04-29T07:00:34;66271.56;;;7.83;100.00
46614;BME280;32338;50.430;6.806;2023-04-29T07:03:01;66274.38;;;7.86;100.00
46614;BME280;32338;50.430;6.806;2023-04-29T07:05:29;66280.00;;;7.91;100.00
46614;BME280;32338;50.430;6.806;2023-04-29T07:07:55;66279.59;;;7.86;100.00
46614;BME280;32338;50.430;6.806;2023-04-29T07:10:22;66280.91;;;7.89;100.00
46614;BME280;32338;50.430;6.806;2023-04-29T07:12:50;66289.00;;;7.99;100.00
46614;BME280;32338;50.430;6.806;2023-04-29T07:15:17;66302.50;;;8.11;100.00
46614;BME280;32338;50.430;6.806;2023-04-29T07:17:43;66283.94;;;7.94;100.00
46614;BME280;32338;50.430;6.806;2023-04-29T07:20:11;66282.06;;;7.90;100.00
46614;BME280;32338;50.430;6.806;2023-04-29T07:22:39;66260.53;;;7.75;100.00
46614;BME280;32338;50.430;6.806;2023-04-29T07:25:06;66267.03;;;7.72;100.00
46614;BME280;32338;50.430;6.806;2023-04-29T07:27:33;66266.88;;;7.76;100.00
46614;BME280;32338;50.430;6.806;2023-04-29T07:30:00;66282.59;;;7.91;100.00
46614;BME280;32338;50.430;6.806;2023-04-29T07:32:27;66275.09;;;7.82;100.00
46614;BME280;32338;50.430;6.806;2023-04-29T07:34:55;66259.56;;;7.70;100.00
46614;BME280;32338;50.430;6.806;2023-04-29T07:37:22;66253.59;;;7.67;100.00
46614;BME280;32338;50.430;6.806;2023-04-29T07:39:50;66242.53;;;7.59;100.00
46614;BME280;32338;50.430;6.806;2023-04-29T07:42:17;66243.25;;;7.55;100.00
46614;BME280;32338;50.430;6.806;2023-04-29T07:44:43;66237.84;;;7.52;100.00
46614;BME280;32338;50.430;6.806;2023-04-29T07:47:10;66235.75;;;7.45;100.00
46614;BME280;32338;50.430;6.806;2023-04-29T07:49:37;66257.69;;;7.66;100.00
46614;BME280;32338;50.430;6.806;2023-04-29T07:52:04;66246.28;;;7.60;100.00
46614;BME280;32338;50.430;6.806;2023-04-29T07:54:31;66264.03;;;7.67;100.00
46614;BME280;32338;50.430;6.806;2023-04-29T07:57:00;66255.84;;;7.69;100.00
46614;BME280;32338;50.430;6.806;2023-04-29T07:59:29;66261.66;;;7.76;100.00
46614;BME280;32338;50.430;6.806;2023-04-29T08:01:55;66275.50;;;7.87;100.00
46614;BME280;32338;50.430;6.806;2023-04-29T08:04:22;66290.47;;;7.98;100.00
46614;BME280;32338;50.430;6.806;2023-04-29T08:06:49;66273.81;;;7.85;100.00
46614;BME280;32338;50.430;6.806;2023-04-29T08:09:16;66278.13;;;7.87;100.00
46614;BME280;32338;50.430;6.806;2023-04-29T08:11:42;66288.22;;;7.96;100.00
46614;BME280;32338;50.430;6.806;2023-04-29T08:14:11;66300.81;;;8.10;100.00
46614;BME280;32338;50.430;6.806;2023-04-29T08:16:38;66302.44;;;8.04;100.00
46614;BME280;32338;50.430;6.806;2023-04-29T08:19:04;66262.75;;;7.70;100.00
46614;BME280;32338;50.430;6.806;2023-04-29T08:21:31;66233.69;;;7.46;100.00
46614;BME280;32338;50.430;6.806;2023-04-29T08:23:58;66245.88;;;7.55;100.00
46614;BME280;32338;50.430;6.806;2023-04-29T08:26:25;66247.75;;;7.59;100.00
46614;BME280;32338;50.430;6.806;2023-04-29T08:28:52;66235.22;;;7.45;100.00
46614;BME280;32338;50.430;6.806;2023-04-29T08:31:20;66240.44;;;7.52;100.00
46614;BME280;32338;50.430;6.806;2023-04-29T08:33:47;66253.38;;;7.64;100.00
46614;BME280;32338;50.430;6.806;2023-04-29T08:36:14;66253.38;;;7.64;100.00
46614;BME280;32338;50.430;6.806;2023-04-29T08:38:40;66257.31;;;7.68;100.00
46614;BME280;32338;50.430;6.806;2023-04-29T08:41:07;66257.31;;;7.68;100.00
46614;BME280;32338;50.430;6.806;2023-04-29T08:43:35;66260.47;;;7.68;100.00
46614;BME280;32338;50.430;6.806;2023-04-29T08:46:02;66252.81;;;7.63;100.00
46614;BME280;32338;50.430;6.806;2023-04-29T08:48:31;66274.53;;;7.81;100.00
46614;BME280;32338;50.430;6.806;2023-04-29T08:50:58;66273.25;;;7.85;100.00
46614;BME280;32338;50.430;6.806;2023-04-29T08:53:26;66274.38;;;7.86;100.00
46614;BME280;32338;50.430;6.806;2023-04-29T08:55:54;66275.31;;;7.84;100.00
46614;BME280;32338;50.430;6.806;2023-04-29T08:58:21;66270.81;;;7.80;100.00
46614;BME280;32338;50.430;6.806;2023-04-29T09:00:48;66255.06;;;7.66;100.00
46614;BME280;32338;50.430;6.806;2023-04-29T09:03:17;66251.50;;;7.60;100.00
46614;BME280;32338;50.430;6.806;2023-04-29T09:05:52;66239.53;;;7.54;100.00
46614;BME280;32338;50.430;6.806;2023-04-29T09:08:20;66237.84;;;7.52;100.00
46614;BME280;32338;50.430;6.806;2023-04-29T09:10:49;66240.81;;;7.50;100.00
46614;BME280;32338;50.430;6.806;2023-04-29T09:13:23;66239.16;;;7.56;100.00
46614;BME280;32338;50.430;6.806;2023-04-29T09:15:50;66239.34;;;7.51;100.00
46614;BME280;32338;50.430;6.806;2023-04-29T09:18:41;66250.72;;;7.57;100.00
46614;BME280;32338;50.430;6.806;2023-04-29T09:21:27;66266.50;;;7.78;100.00
46614;BME280;32338;50.430;6.806;2023-04-29T09:23:58;66291.59;;;7.99;100.00
46614;BME280;32338;50.430;6.806;2023-04-29T09:26:25;66305.81;;;8.07;100.00
46614;BME280;32338;50.430;6.806;2023-04-29T09:29:05;66308.84;;;8.13;100.00
46614;BME280;32338;50.430;6.806;2023-04-29T09:31:33;66306.97;;;8.16;100.00
46614;BME280;32338;50.430;6.806;2023-04-29T09:34:00;66321.97;;;8.27;100.00
46614;BME280;32338;50.430;6.806;2023-04-29T09:36:44;66307.72;;;8.11;100.00
46614;BME280;32338;50.430;6.806;2023-04-29T09:39:12;66300.75;;;8.03;100.00
46614;BME280;32338;50.430;6.806;2023-04-29T09:41:40;66295.94;;;8.08;100.00
46614;BME280;32338;50.430;6.806;2023-04-29T09:44:08;66307.72;;;8.11;100.00
46614;BME280;32338;50.430;6.806;2023-04-29T09:46:36;66289.34;;;7.97;100.00
46614;BME280;32338;50.430;6.806;2023-04-29T09:49:03;66288.94;;;7.92;100.00
46614;BME280;32338;50.430;6.806;2023-04-29T09:51:30;66297.44;;;8.07;100.00
46614;BME280;32338;50.430;6.806;2023-04-29T09:53:59;66312.75;;;8.16;100.00
46614;BME280;32338;50.430;6.806;2023-04-29T09:56:27;66302.84;;;8.09;100.00
46614;BME280;32338;50.430;6.806;2023-04-29T09:58:55;66330.41;;;8.35;100.00
46614;BME280;32338;50.430;6.806;2023-04-29T10:01:24;66329.63;;;8.32;100.00
46614;BME280;32338;50.430;6.806;2023-04-29T10:03:54;66326.66;;;8.34;100.00
46614;BME280;32338;50.430;6.806;2023-04-29T10:06:20;66310.38;;;8.19;100.00
46614;BME280;32338;50.430;6.806;2023-04-29T10:08:48;66329.84;;;8.34;100.00
46614;BME280;32338;50.430;6.806;2023-04-29T10:11:16;66322.16;;;8.30;100.00
46614;BME280;32338;50.430;6.806;2023-04-29T10:13:43;66316.75;;;8.27;100.00
46614;BME280;32338;50.430;6.806;2023-04-29T10:16:22;66326.06;;;8.26;100.00
46614;BME280;32338;50.430;6.806;2023-04-29T10:18:53;66319.72;;;8.25;100.00
46614;BME280;32338;50.430;6.806;2023-04-29T10:21:20;66320.28;;;8.25;100.00
46614;BME280;32338;50.430;6.806;2023-04-29T10:23:50;66330.97;;;8.35;100.00
46614;BME280;32338;50.430;6.806;2023-04-29T10:26:19;66332.66;;;8.37;100.00
46614;BME280;32338;50.430;6.806;2023-04-29T10:28:49;66356.47;;;8.54;100.00
46614;BME280;32338;50.430;6.806;2023-04-29T10:31:18;66347.31;;;8.50;100.00
46614;BME280;32338;50.430;6.806;2023-04-29T10:33:46;66336.59;;;8.40;100.00
46614;BME280;32338;50.430;6.806;2023-04-29T10:36:13;66336.59;;;8.40;100.00
46614;BME280;32338;50.430;6.806;2023-04-29T10:38:44;66333.97;;;8.40;100.00
46614;BME280;32338;50.430;6.806;2023-04-29T10:41:18;66339.19;;;8.40;100.00
46614;BME280;32338;50.430;6.806;2023-04-29T10:43:46;66330.19;;;8.32;100.00
46614;BME280;32338;50.430;6.806;2023-04-29T10:46:17;66326.25;;;8.28;100.00
46614;BME280;32338;50.430;6.806;2023-04-29T10:48:44;66326.84;;;8.29;100.00
46614;BME280;32338;50.430;6.806;2023-04-29T10:51:11;66329.84;;;8.34;100.00
46614;BME280;32338;50.430;6.806;2023-04-29T10:54:00;66334.13;;;8.36;100.00
46614;BME280;32338;50.430;6.806;2023-04-29T10:56:41;66338.06;;;8.39;100.00
46614;BME280;32338;50.430;6.806;2023-04-29T10:59:14;66333.78;;;8.38;100.00
46614;BME280;32338;50.430;6.806;2023-04-29T11:01:48;66344.50;;;8.48;100.00
46614;BME280;32338;50.430;6.806;2023-04-29T11:04:15;66347.84;;;8.51;100.00
46614;BME280;32338;50.430;6.806;2023-04-29T11:06:49;66333.59;;;8.35;100.00
46614;BME280;32338;50.430;6.806;2023-04-29T11:09:25;66332.09;;;8.36;100.00
46614;BME280;32338;50.430;6.806;2023-04-29T11:11:57;66341.66;;;8.45;100.00
46614;BME280;32338;50.430;6.806;2023-04-29T11:14:29;66347.84;;;8.51;100.00
46614;BME280;32338;50.430;6.806;2023-04-29T11:16:58;66353.47;;;8.56;100.00
46614;BME280;32338;50.430;6.806;2023-04-29T11:19:30;66382.00;;;8.87;100.00
46614;BME280;32338;50.430;6.806;2023-04-29T11:22:24;66402.22;;;8.98;100.00
46614;BME280;32338;50.430;6.806;2023-04-29T11:24:53;66420.81;;;9.15;100.00
46614;BME280;32338;50.430;6.806;2023-04-29T11:27:21;66412.75;;;9.13;100.00
46614;BME280;32338;50.430;6.806;2023-04-29T11:29:52;66415.38;;;9.13;100.00
46614;BME280;32338;50.430;6.806;2023-04-29T11:32:22;66416.88;;;9.19;100.00
46614;BME280;32338;50.430;6.806;2023-04-29T11:34:50;66434.50;;;9.30;100.00
46614;BME280;32338;50.430;6.806;2023-04-29T11:37:21;66445.97;;;9.43;100.00
46614;BME280;32338;50.430;6.806;2023-04-29T11:39:48;66453.66;;;9.48;100.00
46614;BME280;32338;50.430;6.806;2023-04-29T11:42:19;66469.44;;;9.69;100.00
46614;BME280;32338;50.430;6.806;2023-04-29T11:44:45;66476.31;;;9.64;100.00
46614;BME280;32338;50.430;6.806;2023-04-29T11:47:13;66456.25;;;9.48;100.00
46614;BME280;32338;50.430;6.806;2023-04-29T11:49:40;66437.13;;;9.30;100.00
46614;BME280;32338;50.430;6.806;2023-04-29T11:52:07;66424.00;;;9.23;100.00
46614;BME280;32338;50.430;6.806;2023-04-29T11:54:34;66413.88;;;9.14;100.00
46614;BME280;32338;50.430;6.806;2023-04-29T11:57:00;66405.81;;;9.04;100.00
46614;BME280;32338;50.430;6.806;2023-04-29T11:59:30;66395.88;;;8.97;100.00
46614;BME280;32338;50.430;6.806;2023-04-29T12:01:57;66393.78;;;8.90;100.00
46614;BME280;32338;50.430;6.806;2023-04-29T12:04:26;66414.25;;;9.12;100.00
46614;BME280;32338;50.430;6.806;2023-04-29T12:06:52;66432.09;;;9.33;100.00
46614;BME280;32338;50.430;6.806;2023-04-29T12:09:19;66474.88;;;9.72;100.00
46614;BME280;32338;50.430;6.806;2023-04-29T12:11:47;66478.97;;;9.71;100.00
46614;BME280;32338;50.430;6.806;2023-04-29T12:14:14;66488.53;;;9.80;100.00
46614;BME280;32338;50.430;6.806;2023-04-29T12:16:41;66504.31;;;9.94;100.00
46614;BME280;32338;50.430;6.806;2023-04-29T12:19:08;66484.25;;;9.78;100.00
46614;BME280;32338;50.430;6.806;2023-04-29T12:21:47;66508.47;;;10.00;100.00
46614;BME280;32338;50.430;6.806;2023-04-29T12:24:14;66500.94;;;9.91;100.00
46614;BME280;32338;50.430;6.806;2023-04-29T12:26:40;66500.19;;;9.88;100.00
46614;BME280;32338;50.430;6.806;2023-04-29T12:29:09;66505.06;;;9.97;100.00
46614;BME280;32338;50.430;6.806;2023-04-29T12:31:35;66493.03;;;9.84;100.00
46614;BME280;32338;50.430;6.806;2023-04-29T12:34:02;66485.94;;;9.80;100.00
46614;BME280;32338;50.430;6.806;2023-04-29T12:36:29;66491.94;;;9.83;100.00
46614;BME280;32338;50.430;6.806;2023-04-29T12:38:59;66515.22;;;10.06;100.00
46614;BME280;32338;50.430;6.806;2023-04-29T12:41:36;66507.69;;;9.97;100.00
46614;BME280;32338;50.430;6.806;2023-04-29T12:44:03;66531.91;;;10.19;100.00
46614;BME280;32338;50.430;6.806;2023-04-29T12:46:33;66533.59;;;10.21;100.00
46614;BME280;32338;50.430;6.806;2023-04-29T12:49:01;66541.69;;;10.31;100.00
46614;BME280;32338;50.430;6.806;2023-04-29T12:51:28;66557.66;;;10.41;100.00
46614;BME280;32338;50.430;6.806;2023-04-29T12:53:56;66519.72;;;10.11;100.00
46614;BME280;32338;50.430;6.806;2023-04-29T12:56:24;66500.94;;;9.91;100.00
46614;BME280;32338;50.430;6.806;2023-04-29T12:58:51;66495.50;;;9.88;100.00
46614;BME280;32338;50.430;6.806;2023-04-29T13:01:17;66488.19;;;9.82;100.00
46614;BME280;32338;50.430;6.806;2023-04-29T13:03:44;66496.44;;;9.87;100.00
46614;BME280;32338;50.430;6.806;2023-04-29T13:06:10;66508.81;;;9.98;100.00